Time;durP1;ratioP1;P1;durP2;ratioP2;P2;SDS_P1;SDS_P2;PMS_P1;PMS_P2;Temp;Humidity;BMP_temperature;BMP_pressure;BME280_temperature;BME280_humidity;BME280_pressure;Samples;Min_cycle;Max_cycle;Signal;HPM_P1;HPM_P2
2024/03/21 00:02:18;;;;;;;49.95;27.90;;;11.20;99.90;;;;;;4977008;28;20018;-86
2024/03/21 00:04:43;;;;;;;43.05;27.02;;;11.10;99.90;;;;;;4975232;28;20038;-85
2024/03/21 00:07:11;;;;;;;44.50;27.63;;;11.10;99.90;;;;;;4968756;28;20078;-86
2024/03/21 00:09:40;;;;;;;49.55;28.80;;;11.00;99.90;;;;;;4970796;28;20400;-85
2024/03/21 00:12:06;;;;;;;52.10;29.85;;;11.00;99.90;;;;;;4962639;28;20038;-85
2024/03/21 00:14:32;;;;;;;50.22;30.05;;;10.90;99.90;;;;;;4989342;28;20028;-86
2024/03/21 00:16:58;;;;;;;55.67;32.75;;;10.90;99.90;;;;;;4971107;28;20073;-86
2024/03/21 00:19:24;;;;;;;51.20;30.65;;;10.90;99.90;;;;;;4974922;28;20027;-86
2024/03/21 00:21:50;;;;;;;52.35;31.02;;;10.90;99.90;;;;;;4960483;28;20493;-86
2024/03/21 00:24:17;;;;;;;54.60;33.38;;;10.90;99.90;;;;;;4976794;28;20048;-86
2024/03/21 00:26:43;;;;;;;59.22;33.47;;;10.90;99.90;;;;;;4970469;28;20506;-87
2024/03/21 00:29:09;;;;;;;60.90;32.25;;;10.80;99.90;;;;;;4969995;28;20102;-86
2024/03/21 00:31:35;;;;;;;59.63;34.97;;;10.80;99.90;;;;;;4976117;28;20125;-84
2024/03/21 00:34:01;;;;;;;61.85;33.47;;;10.80;99.90;;;;;;4975707;28;20029;-86
2024/03/21 00:36:27;;;;;;;61.25;34.50;;;10.80;99.90;;;;;;4973344;28;20038;-87
2024/03/21 00:38:53;;;;;;;59.35;33.40;;;10.80;99.90;;;;;;4966276;28;20169;-84
2024/03/21 00:41:22;;;;;;;58.80;32.15;;;10.80;99.90;;;;;;4976549;28;20172;-84
2024/03/21 00:43:47;;;;;;;60.55;34.72;;;10.90;99.90;;;;;;4976247;28;20030;-87
2024/03/21 00:46:13;;;;;;;55.47;32.13;;;10.80;99.90;;;;;;4976288;28;20026;-86
2024/03/21 00:48:39;;;;;;;58.67;34.53;;;10.90;99.90;;;;;;4972909;28;20525;-86
2024/03/21 00:51:05;;;;;;;61.40;34.92;;;10.90;99.90;;;;;;4974274;28;20074;-86
2024/03/21 00:53:31;;;;;;;62.13;35.20;;;10.80;99.90;;;;;;4974523;28;20034;-86
2024/03/21 00:55:57;;;;;;;53.35;32.28;;;10.90;99.90;;;;;;4971568;28;20034;-84
2024/03/21 00:58:24;;;;;;;59.10;36.08;;;10.90;99.90;;;;;;4968424;28;20073;-86
2024/03/21 01:00:49;;;;;;;52.10;31.90;;;10.90;99.90;;;;;;4971207;28;20050;-86
2024/03/21 01:03:15;;;;;;;61.50;35.88;;;10.90;99.90;;;;;;4970547;28;20027;-84
2024/03/21 01:05:43;;;;;;;69.18;35.58;;;10.90;99.90;;;;;;4960986;28;20051;-86
2024/03/21 01:08:09;;;;;;;60.88;36.38;;;11.00;99.90;;;;;;4956539;28;20090;-86
2024/03/21 01:10:34;;;;;;;60.47;35.17;;;11.00;99.90;;;;;;4970157;28;20065;-86
2024/03/21 01:13:00;;;;;;;60.28;36.25;;;11.00;99.90;;;;;;4975207;28;20033;-86
2024/03/21 01:15:25;;;;;;;57.28;34.78;;;11.00;99.90;;;;;;4970930;28;20030;-84
2024/03/21 01:17:51;;;;;;;66.82;37.28;;;11.00;99.90;;;;;;4974716;28;20038;-84
2024/03/21 01:20:17;;;;;;;63.88;36.90;;;10.90;99.90;;;;;;4972260;28;20046;-84
2024/03/21 01:22:43;;;;;;;65.10;36.00;;;10.90;99.90;;;;;;4961758;28;20094;-84
2024/03/21 01:25:09;;;;;;;63.40;37.55;;;10.90;99.90;;;;;;4965207;28;20513;-84
2024/03/21 01:27:35;;;;;;;62.80;38.83;;;10.90;99.90;;;;;;4969790;28;20049;-84
2024/03/21 01:30:02;;;;;;;67.22;37.22;;;10.80;99.90;;;;;;4979179;28;20034;-84
2024/03/21 01:32:27;;;;;;;62.40;36.95;;;10.80;99.90;;;;;;4966454;28;20406;-84
2024/03/21 01:34:53;;;;;;;61.97;36.45;;;10.80;99.90;;;;;;4971583;28;20026;-84
2024/03/21 01:37:19;;;;;;;65.78;38.65;;;10.80;99.90;;;;;;4976696;28;20038;-84
2024/03/21 01:39:45;;;;;;;68.45;38.65;;;10.80;99.90;;;;;;4971561;28;20030;-84
2024/03/21 01:42:18;;;;;;;61.85;38.50;;;10.80;99.90;;;;;;4962778;28;20500;-84
2024/03/21 01:44:59;;;;;;;60.22;36.22;;;10.80;99.90;;;;;;4974546;28;20123;-84
2024/03/21 01:47:25;;;;;;;62.58;37.33;;;10.80;99.90;;;;;;4963348;28;20062;-84
2024/03/21 01:49:50;;;;;;;58.78;34.65;;;10.80;99.90;;;;;;4978669;28;20053;-84
2024/03/21 01:52:16;;;;;;;63.45;37.47;;;10.80;99.90;;;;;;4975768;28;20451;-84
2024/03/21 01:54:43;;;;;;;58.70;34.92;;;10.80;99.90;;;;;;4978673;28;20026;-84
2024/03/21 01:57:09;;;;;;;60.35;35.42;;;10.70;99.90;;;;;;4974442;28;20019;-85
2024/03/21 01:59:34;;;;;;;60.38;34.95;;;10.70;99.90;;;;;;4968620;28;20073;-84
2024/03/21 02:02:00;;;;;;;60.50;35.38;;;10.70;99.90;;;;;;4978800;28;20117;-84
2024/03/21 02:04:26;;;;;;;62.80;36.55;;;10.70;99.90;;;;;;4982625;28;20121;-85
2024/03/21 02:06:52;;;;;;;58.83;35.33;;;10.70;99.90;;;;;;4970736;28;20403;-85
2024/03/21 02:09:21;;;;;;;72.03;35.83;;;10.70;99.90;;;;;;4965412;28;20018;-84
2024/03/21 02:11:47;;;;;;;57.58;35.72;;;10.70;99.90;;;;;;4978868;28;20038;-84
2024/03/21 02:14:14;;;;;;;59.33;34.72;;;10.70;99.90;;;;;;4977680;28;20026;-84
2024/03/21 02:16:39;;;;;;;58.38;35.15;;;10.70;99.90;;;;;;4963673;28;20038;-84
2024/03/21 02:19:05;;;;;;;55.03;33.75;;;10.60;99.90;;;;;;4959065;28;20195;-84
2024/03/21 02:24:15;;;;;;;50.83;32.53;;;10.60;99.90;;;;;;4995994;28;20104;-84
2024/03/21 02:26:40;;;;;;;49.75;30.95;;;10.40;99.90;;;;;;4973037;28;20486;-84
2024/03/21 02:29:06;;;;;;;45.50;29.10;;;10.40;99.90;;;;;;4974467;28;20037;-84
2024/03/21 02:31:32;;;;;;;44.33;27.60;;;10.40;99.90;;;;;;4974673;28;20039;-84
2024/03/21 02:33:57;;;;;;;42.45;26.83;;;10.40;99.90;;;;;;4968701;28;20017;-85
2024/03/21 02:36:23;;;;;;;39.80;24.70;;;10.40;99.90;;;;;;4977103;28;20034;-84
2024/03/21 02:38:49;;;;;;;38.95;24.38;;;10.40;99.90;;;;;;4973449;28;20023;-84
2024/03/21 02:41:14;;;;;;;42.60;24.10;;;10.40;99.90;;;;;;4974401;28;20439;-84
2024/03/21 02:43:40;;;;;;;35.00;21.95;;;10.40;99.90;;;;;;4972736;28;20037;-84
2024/03/21 02:46:05;;;;;;;36.67;21.35;;;10.50;99.90;;;;;;4962232;28;20030;-84
2024/03/21 02:48:32;;;;;;;34.92;19.98;;;10.50;99.90;;;;;;4964072;28;20034;-84
2024/03/21 02:50:57;;;;;;;38.38;20.35;;;10.50;99.90;;;;;;4986926;28;20488;-84
2024/03/21 02:53:23;;;;;;;36.40;21.65;;;10.50;99.90;;;;;;4967282;28;20070;-84
2024/03/21 02:55:49;;;;;;;38.45;20.90;;;10.50;99.90;;;;;;4975285;28;20085;-84
2024/03/21 02:58:14;;;;;;;32.33;20.58;;;10.60;99.90;;;;;;4977599;28;20843;-85
2024/03/21 03:00:40;;;;;;;32.85;18.85;;;10.60;99.90;;;;;;4977734;28;20050;-85
2024/03/21 03:03:07;;;;;;;32.53;19.80;;;10.60;99.90;;;;;;4974208;28;20031;-84
2024/03/21 03:05:39;;;;;;;36.97;18.35;;;10.60;99.90;;;;;;4966646;28;20062;-84
2024/03/21 03:08:04;;;;;;;;;;;10.50;99.90;;;;;;4977925;28;20022;-84
2024/03/21 03:10:30;;;;;;;33.47;19.20;;;10.50;99.90;;;;;;4977718;28;20025;-84
2024/03/21 03:12:56;;;;;;;35.83;20.45;;;10.40;99.90;;;;;;4976689;28;20483;-84
2024/03/21 03:15:21;;;;;;;35.13;21.88;;;10.30;99.90;;;;;;4965178;28;20396;-84
2024/03/21 03:17:47;;;;;;;37.10;21.52;;;10.30;99.90;;;;;;4973510;28;20034;-85
2024/03/21 03:20:12;;;;;;;33.30;22.00;;;10.20;99.90;;;;;;4973108;28;20034;-85
2024/03/21 03:22:39;;;;;;;34.53;20.40;;;10.20;99.90;;;;;;4976158;28;20034;-84
2024/03/21 03:25:05;;;;;;;35.03;21.23;;;10.10;99.90;;;;;;4973881;28;20121;-85
2024/03/21 03:27:31;;;;;;;32.60;20.25;;;10.10;99.90;;;;;;4972283;28;20100;-84
2024/03/21 03:29:56;;;;;;;35.75;21.73;;;10.00;99.90;;;;;;4992323;28;20030;-84
2024/03/21 03:32:22;;;;;;;35.05;22.08;;;10.00;99.90;;;;;;4973611;28;20033;-84
2024/03/21 03:37:32;;;;;;;35.30;21.75;;;9.90;99.90;;;;;;4993882;28;20041;-84
2024/03/21 03:39:58;;;;;;;36.17;22.52;;;9.80;99.90;;;;;;4975241;28;20460;-85
2024/03/21 03:42:23;;;;;;;36.90;22.83;;;9.80;99.90;;;;;;4976760;28;20031;-84
2024/03/21 03:44:49;;;;;;;40.50;24.20;;;9.70;99.90;;;;;;4974605;28;20054;-84
2024/03/21 03:47:14;;;;;;;42.65;25.25;;;9.60;99.90;;;;;;4975924;28;20026;-84
2024/03/21 03:49:40;;;;;;;38.58;23.38;;;9.60;99.90;;;;;;4975187;28;20041;-84
2024/03/21 03:52:05;;;;;;;38.70;23.85;;;9.60;99.90;;;;;;4993533;28;20520;-85
2024/03/21 03:54:31;;;;;;;38.50;23.88;;;9.50;99.90;;;;;;4977092;28;20046;-84
2024/03/21 03:56:57;;;;;;;41.47;24.38;;;9.50;99.90;;;;;;4973036;28;20030;-85
2024/03/21 03:59:22;;;;;;;43.13;24.83;;;9.50;99.90;;;;;;4960529;28;20042;-84
2024/03/21 04:01:48;;;;;;;36.90;24.80;;;9.60;99.90;;;;;;4970904;28;20434;-85
2024/03/21 04:04:14;;;;;;;42.28;26.02;;;9.50;99.90;;;;;;4972582;28;20023;-85
2024/03/21 04:06:40;;;;;;;47.70;26.58;;;9.50;99.90;;;;;;4976213;28;20069;-85
2024/03/21 04:09:06;;;;;;;49.95;27.33;;;9.50;99.90;;;;;;4961657;28;20070;-85
2024/03/21 04:11:35;;;;;;;48.47;27.20;;;9.60;99.90;;;;;;4967792;28;20042;-85
2024/03/21 04:14:00;;;;;;;46.65;27.55;;;9.60;99.90;;;;;;4974537;28;20144;-84
2024/03/21 04:16:26;;;;;;;50.25;28.90;;;9.60;99.90;;;;;;4976176;28;20173;-84
2024/03/21 04:18:52;;;;;;;47.53;27.10;;;9.60;99.90;;;;;;4957959;28;20084;-85
2024/03/21 04:21:17;;;;;;;49.28;28.33;;;9.60;99.90;;;;;;4966979;28;20030;-84
2024/03/21 04:23:43;;;;;;;50.45;28.65;;;9.70;99.90;;;;;;4975950;28;20375;-85
2024/03/21 04:26:08;;;;;;;54.38;30.88;;;9.70;99.90;;;;;;4993418;28;20077;-84
2024/03/21 04:28:34;;;;;;;50.90;28.30;;;9.70;99.90;;;;;;4976125;28;20037;-85
2024/03/21 04:30:59;;;;;;;50.15;29.90;;;9.70;99.90;;;;;;4974269;28;20483;-84
2024/03/21 04:33:25;;;;;;;56.63;31.25;;;9.80;99.90;;;;;;4976223;28;20407;-84
2024/03/21 04:35:51;;;;;;;58.00;32.88;;;9.80;99.90;;;;;;4974708;28;20052;-84
2024/03/21 04:38:16;;;;;;;53.33;31.75;;;9.90;99.90;;;;;;4958253;28;20031;-84
2024/03/21 04:40:42;;;;;;;61.45;32.67;;;9.90;99.90;;;;;;4967540;28;20023;-84
2024/03/21 04:43:08;;;;;;;59.28;32.85;;;9.90;99.90;;;;;;4972256;28;20037;-85
2024/03/21 04:45:33;;;;;;;57.83;34.08;;;10.00;99.90;;;;;;4974262;28;20530;-84
2024/03/21 04:47:59;;;;;;;57.58;31.17;;;10.00;99.90;;;;;;4973746;28;20062;-84
2024/03/21 04:50:24;;;;;;;50.33;30.23;;;10.00;99.90;;;;;;4963848;28;20089;-84
2024/03/21 04:52:50;;;;;;;44.10;26.45;;;10.00;99.90;;;;;;4975128;28;20050;-84
2024/03/21 04:55:16;;;;;;;45.33;26.00;;;10.10;99.90;;;;;;4975766;28;20053;-84
2024/03/21 04:57:41;;;;;;;38.47;23.73;;;10.00;99.90;;;;;;4974662;28;20101;-84
2024/03/21 05:00:13;;;;;;;38.50;23.70;;;10.00;99.90;;;;;;4969485;28;20051;-85
2024/03/21 05:02:38;;;;;;;36.47;21.80;;;10.10;99.90;;;;;;4965375;28;20535;-85
2024/03/21 05:05:04;;;;;;;33.35;20.95;;;10.10;99.90;;;;;;4975394;28;20067;-85
2024/03/21 05:07:34;;;;;;;30.67;18.25;;;10.10;99.90;;;;;;4975952;28;20027;-84
2024/03/21 05:09:59;;;;;;;23.23;15.27;;;10.10;99.90;;;;;;4973475;28;20026;-84
2024/03/21 05:12:25;;;;;;;23.95;14.15;;;10.10;99.90;;;;;;4972600;28;20597;-85
2024/03/21 05:14:51;;;;;;;19.88;11.20;;;10.00;99.90;;;;;;4967876;28;20023;-85
2024/03/21 05:17:17;;;;;;;18.88;11.48;;;10.00;99.90;;;;;;4974689;28;20053;-84
2024/03/21 05:19:44;;;;;;;15.13;10.73;;;10.00;99.90;;;;;;4973431;28;20034;-84
2024/03/21 05:22:10;;;;;;;13.88;9.07;;;9.90;99.90;;;;;;4963069;28;20038;-84
2024/03/21 05:24:36;;;;;;;13.38;8.95;;;9.90;99.90;;;;;;4968939;28;20502;-84
2024/03/21 05:27:02;;;;;;;13.05;8.73;;;9.80;99.90;;;;;;4971172;28;20018;-84
2024/03/21 05:29:29;;;;;;;12.95;7.03;;;9.80;99.90;;;;;;4966826;28;20038;-84
2024/03/21 05:31:55;;;;;;;10.93;6.90;;;9.80;99.90;;;;;;4974171;28;20380;-85
2024/03/21 05:34:20;;;;;;;7.18;5.60;;;9.70;99.90;;;;;;4971663;28;20030;-84
2024/03/21 05:36:46;;;;;;;9.27;5.10;;;9.60;99.90;;;;;;4961267;28;20038;-84
2024/03/21 05:39:12;;;;;;;6.53;5.35;;;9.60;99.90;;;;;;4972640;28;20054;-84
2024/03/21 05:41:37;;;;;;;7.53;5.30;;;9.50;99.90;;;;;;4968571;28;20565;-85
2024/03/21 05:44:03;;;;;;;5.20;4.47;;;9.40;99.90;;;;;;4971026;28;20023;-84
2024/03/21 05:46:29;;;;;;;7.57;5.50;;;9.40;99.90;;;;;;4958211;28;20031;-84
2024/03/21 05:48:55;;;;;;;6.43;5.07;;;9.40;99.90;;;;;;4971015;28;20026;-84
2024/03/21 05:51:21;;;;;;;7.30;5.45;;;9.30;99.90;;;;;;4970699;28;20479;-84
2024/03/21 05:53:47;;;;;;;7.78;5.75;;;9.20;99.90;;;;;;4963958;28;20078;-84
2024/03/21 05:56:14;;;;;;;10.00;7.05;;;9.20;99.90;;;;;;4972634;28;20145;-84
2024/03/21 05:58:40;;;;;;;10.23;7.30;;;9.10;99.90;;;;;;4969588;28;20026;-84
2024/03/21 06:03:32;;;;;;;13.50;8.20;;;9.10;99.90;;;;;;4984063;28;20017;-84
2024/03/21 06:05:59;;;;;;;11.65;9.30;;;9.20;99.90;;;;;;4982439;28;20030;-84
2024/03/21 06:08:25;;;;;;;11.77;8.77;;;9.10;99.90;;;;;;4979908;28;20038;-85
2024/03/21 06:10:50;;;;;;;11.93;9.40;;;9.10;99.90;;;;;;4975865;28;20081;-84
2024/03/21 06:13:16;;;;;;;15.95;10.23;;;9.10;99.90;;;;;;4975694;28;20039;-84
2024/03/21 06:15:42;;;;;;;14.00;10.18;;;9.10;99.90;;;;;;4975908;28;20057;-84
2024/03/21 06:18:07;;;;;;;11.82;9.63;;;9.10;99.90;;;;;;4978690;28;20027;-85
2024/03/21 06:20:33;;;;;;;14.57;9.52;;;9.10;99.90;;;;;;4978860;28;20022;-84
2024/03/21 06:22:58;;;;;;;12.00;8.70;;;9.10;99.90;;;;;;4978734;28;20049;-84
2024/03/21 06:25:24;;;;;;;13.18;9.38;;;9.10;99.90;;;;;;4978147;28;20046;-84
2024/03/21 06:27:50;;;;;;;13.95;9.43;;;9.10;99.90;;;;;;4978576;28;20030;-84
2024/03/21 06:30:16;;;;;;;15.57;9.80;;;9.20;99.90;;;;;;4978078;28;20395;-84
2024/03/21 06:32:42;;;;;;;16.45;10.00;;;9.20;99.90;;;;;;4978774;28;20041;-84
2024/03/21 06:35:10;;;;;;;15.93;10.13;;;9.20;99.90;;;;;;4976459;28;20033;-84
2024/03/21 06:37:35;;;;;;;14.10;9.80;;;9.20;99.90;;;;;;4973618;28;20118;-84
2024/03/21 06:40:06;;;;;;;18.60;10.52;;;9.20;99.90;;;;;;4969362;28;20057;-84
2024/03/21 06:42:32;;;;;;;14.18;9.52;;;9.30;99.90;;;;;;4985382;28;20018;-84
2024/03/21 06:45:02;;;;;;;11.50;8.40;;;9.30;99.90;;;;;;4978533;28;20072;-84
2024/03/21 06:47:27;;;;;;;10.63;8.32;;;9.30;99.90;;;;;;4977232;28;20529;-84
2024/03/21 06:49:56;;;;;;;11.15;8.05;;;9.20;99.90;;;;;;4966818;28;20039;-84
2024/03/21 06:52:21;;;;;;;13.43;7.43;;;9.20;99.90;;;;;;4978104;28;20053;-84
2024/03/21 06:54:47;;;;;;;11.50;7.47;;;9.10;99.90;;;;;;4967186;28;20030;-84
2024/03/21 06:57:13;;;;;;;9.52;7.10;;;9.10;99.90;;;;;;4976714;28;20117;-85
2024/03/21 06:59:39;;;;;;;9.82;6.63;;;9.10;99.90;;;;;;4977808;28;20057;-85
2024/03/21 07:02:06;;;;;;;9.55;6.93;;;9.10;99.90;;;;;;4972111;28;20027;-85
2024/03/21 07:04:31;;;;;;;9.95;7.20;;;9.00;99.90;;;;;;4977190;28;20030;-85
2024/03/21 07:06:57;;;;;;;9.23;6.57;;;9.00;99.90;;;;;;4979355;28;20033;-84
2024/03/21 07:09:23;;;;;;;10.80;7.20;;;9.00;99.90;;;;;;4977010;28;20053;-84
2024/03/21 07:11:49;;;;;;;9.32;5.60;;;9.00;99.90;;;;;;4974401;28;22810;-84
2024/03/21 07:14:14;;;;;;;8.50;5.90;;;9.00;99.90;;;;;;4965599;28;20054;-84
2024/03/21 07:16:40;;;;;;;11.63;6.00;;;9.00;99.90;;;;;;4971828;28;20030;-84
2024/03/21 07:19:06;;;;;;;7.00;4.40;;;9.00;99.90;;;;;;4978625;28;20600;-85
2024/03/21 07:21:31;;;;;;;8.68;3.70;;;9.00;99.90;;;;;;4977937;28;20038;-84
2024/03/21 07:23:57;;;;;;;9.30;3.25;;;9.00;99.90;;;;;;4977762;28;20501;-85
2024/03/21 07:26:22;;;;;;;11.40;3.47;;;9.00;99.90;;;;;;4978693;28;20030;-84
2024/03/21 07:28:48;;;;;;;9.98;2.58;;;9.10;99.90;;;;;;4974855;28;20078;-85
2024/03/21 07:31:13;;;;;;;6.18;1.95;;;9.00;99.90;;;;;;4974818;28;20041;-85
2024/03/21 07:33:39;;;;;;;4.95;1.50;;;9.00;99.90;;;;;;4975244;28;20112;-84
2024/03/21 07:36:05;;;;;;;6.85;1.92;;;9.10;99.90;;;;;;4974992;28;20038;-85
2024/03/21 07:38:30;;;;;;;4.78;1.58;;;9.10;99.90;;;;;;4972882;28;20026;-85
2024/03/21 07:41:00;;;;;;;4.43;1.60;;;9.10;99.90;;;;;;4970500;28;20100;-86
2024/03/21 07:43:27;;;;;;;4.13;1.40;;;9.10;99.90;;;;;;4959607;28;20027;-85
2024/03/21 07:45:53;;;;;;;7.65;2.30;;;9.10;99.90;;;;;;4963654;28;20035;-86
2024/03/21 07:48:19;;;;;;;8.73;1.35;;;9.10;99.90;;;;;;4973096;28;20023;-85
2024/03/21 07:50:45;;;;;;;4.88;1.50;;;9.10;99.90;;;;;;4970565;28;20038;-85
2024/03/21 07:53:11;;;;;;;7.18;1.10;;;9.10;99.90;;;;;;4976864;28;20042;-85
2024/03/21 07:55:37;;;;;;;8.43;2.45;;;9.10;99.90;;;;;;4987495;28;20022;-84
2024/03/21 07:58:05;;;;;;;5.88;1.45;;;9.30;99.90;;;;;;4993246;28;20368;-85
2024/03/21 08:00:31;;;;;;;4.20;1.30;;;9.30;99.90;;;;;;4970513;28;20174;-86
2024/03/21 08:02:57;;;;;;;7.68;1.55;;;9.40;99.90;;;;;;4994290;28;20062;-86
2024/03/21 08:05:23;;;;;;;5.15;1.30;;;9.40;99.90;;;;;;4977756;28;20399;-86
2024/03/21 08:07:49;;;;;;;5.88;1.55;;;9.40;99.90;;;;;;4976174;28;20026;-85
2024/03/21 08:10:15;;;;;;;5.68;1.10;;;9.40;99.90;;;;;;4976330;28;20035;-86
2024/03/21 08:12:41;;;;;;;6.00;1.65;;;9.50;99.90;;;;;;4974816;28;20407;-83
2024/03/21 08:15:10;;;;;;;4.72;1.20;;;9.60;99.90;;;;;;4986347;28;20049;-86
2024/03/21 08:17:35;;;;;;;6.13;1.83;;;9.60;99.90;;;;;;4987194;28;20120;-86
2024/03/21 08:20:01;;;;;;;5.25;1.40;;;9.70;99.90;;;;;;4973671;28;20078;-86
2024/03/21 08:22:27;;;;;;;6.28;1.35;;;9.80;99.90;;;;;;4977595;28;20037;-85
2024/03/21 08:24:53;;;;;;;8.32;1.40;;;9.80;99.90;;;;;;4975539;28;20018;-86
2024/03/21 08:27:19;;;;;;;5.57;1.27;;;9.90;99.90;;;;;;4976015;28;20375;-86
2024/03/21 08:29:50;;;;;;;6.70;1.10;;;10.00;99.90;;;;;;4971531;28;20041;-86
2024/03/21 08:32:21;;;;;;;8.00;1.10;;;10.00;99.90;;;;;;4965899;28;20040;-85
2024/03/21 08:34:47;;;;;;;5.68;0.90;;;10.00;99.90;;;;;;4991826;28;20034;-85
2024/03/21 08:37:12;;;;;;;2.67;0.57;;;10.10;99.90;;;;;;4970200;28;20402;-86
2024/03/21 08:39:38;;;;;;;6.78;0.85;;;10.20;99.90;;;;;;4957100;28;20054;-85
2024/03/21 08:42:04;;;;;;;3.55;0.47;;;10.10;99.90;;;;;;4970187;28;20053;-86
2024/03/21 08:44:29;;;;;;;6.07;0.82;;;10.10;99.90;;;;;;4961957;28;20026;-86
2024/03/21 08:46:55;;;;;;;7.03;0.70;;;10.10;99.90;;;;;;4976339;28;20380;-85
2024/03/21 08:49:20;;;;;;;8.82;1.05;;;10.20;99.90;;;;;;4976467;28;20026;-85
2024/03/21 08:51:46;;;;;;;2.72;0.50;;;10.30;99.90;;;;;;4975571;28;20128;-86
2024/03/21 08:54:12;;;;;;;6.43;0.93;;;10.40;99.90;;;;;;4976007;28;20026;-86
2024/03/21 08:56:37;;;;;;;6.18;0.57;;;10.40;99.90;;;;;;4975424;28;20144;-85
2024/03/21 08:59:03;;;;;;;3.88;0.60;;;10.50;99.90;;;;;;4959698;28;20046;-85
2024/03/21 09:01:29;;;;;;;4.65;0.47;;;10.50;99.90;;;;;;4956998;28;20027;-86
2024/03/21 09:03:54;;;;;;;6.57;0.60;;;10.60;99.90;;;;;;4971701;28;20483;-85
2024/03/21 09:06:20;;;;;;;5.82;0.50;;;10.60;99.90;;;;;;4976263;28;20474;-85
2024/03/21 09:08:45;;;;;;;5.55;0.80;;;10.70;99.90;;;;;;4974488;28;20064;-86
2024/03/21 09:11:11;;;;;;;6.38;0.80;;;10.70;99.90;;;;;;4975773;28;20038;-85
2024/03/21 09:13:37;;;;;;;8.27;1.27;;;10.70;99.90;;;;;;4975356;28;20036;-83
2024/03/21 09:16:03;;;;;;;8.13;0.70;;;10.70;99.90;;;;;;4976019;28;20386;-86
2024/03/21 09:18:28;;;;;;;4.10;0.60;;;10.70;99.90;;;;;;4976079;28;20023;-86
2024/03/21 09:20:56;;;;;;;7.18;0.60;;;10.70;99.90;;;;;;4976534;28;20386;-86
2024/03/21 09:23:22;;;;;;;10.50;1.10;;;10.60;99.90;;;;;;4969739;28;20498;-86
2024/03/21 09:25:48;;;;;;;7.00;0.90;;;10.50;99.90;;;;;;4970208;28;20026;-86
2024/03/21 09:28:14;;;;;;;8.90;0.73;;;10.30;99.90;;;;;;4995468;28;20100;-85
2024/03/21 09:30:44;;;;;;;9.18;0.88;;;10.30;99.90;;;;;;4985482;28;20026;-86
2024/03/21 09:33:11;;;;;;;6.93;0.88;;;10.30;99.90;;;;;;4956729;28;20121;-86
2024/03/21 09:35:36;;;;;;;5.85;1.25;;;10.40;99.90;;;;;;4966324;28;20042;-86
2024/03/21 09:38:02;;;;;;;5.07;0.50;;;10.30;99.90;;;;;;4975366;28;20184;-86
2024/03/21 09:40:27;;;;;;;4.97;0.90;;;10.30;99.90;;;;;;4972901;28;20046;-86
2024/03/21 09:42:55;;;;;;;4.30;0.55;;;10.30;99.90;;;;;;4969198;28;20038;-86
2024/03/21 09:45:23;;;;;;;4.20;0.50;;;10.40;99.90;;;;;;4977368;28;20022;-86
2024/03/21 09:47:49;;;;;;;4.90;0.70;;;10.40;99.90;;;;;;4967510;28;20014;-86
2024/03/21 09:50:14;;;;;;;4.90;0.60;;;10.50;99.90;;;;;;4979905;28;20503;-85
2024/03/21 09:52:41;;;;;;;7.75;0.52;;;10.60;99.90;;;;;;4979650;28;20048;-86
2024/03/21 09:55:14;;;;;;;6.88;0.70;;;10.70;99.90;;;;;;4979154;28;20034;-86
2024/03/21 09:57:43;;;;;;;5.38;0.70;;;10.80;99.90;;;;;;4965140;28;20027;-86
2024/03/21 10:00:15;;;;;;;7.47;0.60;;;10.80;99.90;;;;;;4965773;28;20043;-86
2024/03/21 10:02:46;;;;;;;4.40;0.50;;;10.80;99.90;;;;;;4962696;28;20027;-85
2024/03/21 10:05:22;;;;;;;5.28;1.02;;;10.80;99.90;;;;;;4975049;28;20027;-89
2024/03/21 10:07:48;;;;;;;4.65;0.40;;;10.90;99.90;;;;;;4974378;28;20026;-85
2024/03/21 10:10:14;;;;;;;6.32;0.60;;;11.00;99.90;;;;;;4975720;28;20035;-85
2024/03/21 10:12:40;;;;;;;3.88;0.63;;;11.00;99.90;;;;;;4975384;28;20043;-84
2024/03/21 10:15:13;;;;;;;7.57;0.88;;;11.00;99.90;;;;;;4976106;28;20121;-87
2024/03/21 10:17:40;;;;;;;7.22;0.90;;;10.90;99.90;;;;;;4968736;28;20479;-85
2024/03/21 10:20:08;;;;;;;3.65;0.50;;;10.80;99.90;;;;;;4976291;28;20420;-85
2024/03/21 10:22:34;;;;;;;5.75;0.60;;;10.80;99.90;;;;;;4970829;28;20031;-84
2024/03/21 10:25:03;;;;;;;5.30;1.00;;;10.80;99.90;;;;;;4972170;28;20508;-85
2024/03/21 10:27:30;;;;;;;7.95;1.17;;;10.80;99.90;;;;;;4971922;28;20028;-86
2024/03/21 10:29:57;;;;;;;5.20;0.70;;;10.80;99.90;;;;;;4964727;28;20073;-85
2024/03/21 10:32:24;;;;;;;5.10;0.70;;;10.80;99.90;;;;;;4967612;28;20130;-84
2024/03/21 10:34:54;;;;;;;6.72;1.02;;;10.90;99.90;;;;;;4970777;28;20027;-85
2024/03/21 10:37:21;;;;;;;8.10;0.70;;;11.00;99.90;;;;;;4971471;28;20041;-85
2024/03/21 10:39:48;;;;;;;4.70;0.70;;;10.90;99.90;;;;;;4964035;28;20038;-86
2024/03/21 10:42:30;;;;;;;4.90;0.60;;;11.00;99.90;;;;;;4975016;28;20030;-86
2024/03/21 10:45:02;;;;;;;6.85;0.75;;;11.20;99.90;;;;;;4963641;28;20086;-85
2024/03/21 10:47:28;;;;;;;5.28;0.52;;;11.20;99.90;;;;;;4959090;28;20399;-86
2024/03/21 10:49:54;;;;;;;7.65;0.80;;;11.30;99.90;;;;;;4963289;28;20033;-86
2024/03/21 10:52:21;;;;;;;10.73;0.73;;;11.30;99.90;;;;;;4965321;28;20039;-86
2024/03/21 10:54:54;;;;;;;5.03;0.77;;;11.40;99.90;;;;;;4966526;28;20031;-85
2024/03/21 10:57:24;;;;;;;7.65;0.50;;;11.40;99.90;;;;;;4963930;28;20026;-85
2024/03/21 11:00:13;;;;;;;4.82;0.50;;;11.60;99.90;;;;;;4976629;28;20133;-85
2024/03/21 11:02:40;;;;;;;4.82;0.50;;;11.60;99.90;;;;;;4966993;28;20039;-86
2024/03/21 11:05:09;;;;;;;4.03;0.40;;;11.70;99.90;;;;;;4967645;28;20109;-86
2024/03/21 11:07:37;;;;;;;4.82;0.50;;;11.80;99.90;;;;;;4972772;28;20098;-85
2024/03/21 11:10:03;;;;;;;4.22;0.85;;;11.80;99.90;;;;;;4970769;28;20463;-86
2024/03/21 11:12:34;;;;;;;8.48;0.85;;;11.90;99.90;;;;;;4972579;28;20137;-86
2024/03/21 11:14:59;;;;;;;6.20;0.68;;;11.80;99.90;;;;;;4964510;28;20027;-86
2024/03/21 11:17:25;;;;;;;3.58;0.65;;;11.90;99.90;;;;;;4972132;28;20033;-86
2024/03/21 11:19:51;;;;;;;4.97;0.75;;;12.00;99.90;;;;;;4969101;28;20038;-86
2024/03/21 11:22:17;;;;;;;5.55;0.70;;;12.00;99.90;;;;;;4970679;28;20027;-87
2024/03/21 11:24:44;;;;;;;5.50;0.70;;;12.00;99.90;;;;;;4973619;28;20137;-86
2024/03/21 11:27:17;;;;;;;4.75;0.60;;;12.10;99.90;;;;;;4972674;28;20031;-86
2024/03/21 11:29:43;;;;;;;4.82;0.60;;;12.10;99.90;;;;;;4971004;28;20101;-86
2024/03/21 11:32:08;;;;;;;6.65;0.93;;;12.00;99.90;;;;;;4973909;28;20495;-85
2024/03/21 11:34:37;;;;;;;4.78;0.70;;;11.90;99.90;;;;;;4975678;28;20034;-85
2024/03/21 11:37:03;;;;;;;5.13;0.60;;;11.90;99.90;;;;;;4973471;28;20023;-86
2024/03/21 11:39:29;;;;;;;5.72;0.70;;;11.90;99.90;;;;;;4973341;28;20394;-86
2024/03/21 11:42:07;;;;;;;2.70;0.52;;;11.90;99.90;;;;;;4970268;28;20106;-85
2024/03/21 11:44:36;;;;;;;5.90;1.00;;;11.90;99.90;;;;;;4969847;28;20027;-85
2024/03/21 11:47:02;;;;;;;4.80;1.65;;;11.80;99.90;;;;;;4967865;28;20037;-85
2024/03/21 11:49:28;;;;;;;5.47;0.90;;;11.80;99.90;;;;;;4972545;28;20038;-85
2024/03/21 11:51:53;;;;;;;3.63;0.90;;;11.80;99.90;;;;;;4973892;28;20043;-85
2024/03/21 11:54:19;;;;;;;4.05;1.15;;;11.80;99.90;;;;;;4975649;28;20391;-85
2024/03/21 11:56:45;;;;;;;4.45;1.20;;;11.70;99.90;;;;;;4974571;28;20069;-85
2024/03/21 11:59:11;;;;;;;5.65;1.30;;;11.70;99.90;;;;;;4958140;28;20492;-85
2024/03/21 12:01:36;;;;;;;6.75;1.48;;;11.80;99.90;;;;;;4967404;28;20103;-84
2024/03/21 12:04:02;;;;;;;4.70;1.27;;;11.80;99.90;;;;;;4982675;28;20022;-85
2024/03/21 12:06:27;;;;;;;3.58;1.10;;;11.90;99.90;;;;;;4973277;28;20032;-85
2024/03/21 12:08:54;;;;;;;7.28;1.58;;;11.90;99.90;;;;;;4969379;28;20031;-85
2024/03/21 12:11:20;;;;;;;6.50;1.33;;;11.90;99.90;;;;;;4973874;28;20202;-85
2024/03/21 12:13:47;;;;;;;5.85;1.35;;;12.10;99.90;;;;;;4974820;28;20241;-85
2024/03/21 12:16:20;;;;;;;6.78;1.40;;;12.30;99.90;;;;;;4971546;28;20392;-86
2024/03/21 12:18:46;;;;;;;3.63;1.80;;;12.60;99.90;;;;;;4975921;28;20392;-85
2024/03/21 12:21:17;;;;;;;6.45;1.70;;;12.60;99.90;;;;;;4963964;28;20042;-86
2024/03/21 12:23:43;;;;;;;4.63;1.48;;;12.40;99.90;;;;;;4956286;29;20091;-85
2024/03/21 12:26:12;;;;;;;4.82;1.70;;;12.20;99.90;;;;;;4956446;29;20070;-86
2024/03/21 12:28:42;;;;;;;4.50;1.70;;;12.00;99.90;;;;;;4956040;29;20058;-84
2024/03/21 12:31:10;;;;;;;7.53;2.17;;;12.00;99.90;;;;;;4962331;28;20039;-85
2024/03/21 12:33:36;;;;;;;6.25;1.85;;;12.00;99.90;;;;;;4955811;29;20034;-86
2024/03/21 12:36:02;;;;;;;3.88;1.83;;;12.10;99.90;;;;;;4966771;28;20574;-86
2024/03/21 12:38:30;;;;;;;5.63;2.15;;;12.10;99.90;;;;;;4972002;28;20023;-86
2024/03/21 12:41:00;;;;;;;5.78;2.80;;;12.10;99.90;;;;;;4972766;28;20035;-86
2024/03/21 12:43:25;;;;;;;5.75;2.30;;;12.20;99.90;;;;;;4968991;28;20086;-86
2024/03/21 12:45:52;;;;;;;5.53;2.83;;;12.30;99.90;;;;;;4964767;28;20027;-86